Time;durP1;ratioP1;P1;durP2;ratioP2;P2;SDS_P1;SDS_P2;PMS_P1;PMS_P2;Temp;Humidity;BMP_temperature;BMP_pressure;BME280_temperature;BME280_humidity;BME280_pressure;Samples;Min_cycle;Max_cycle;Signal;HPM_P1;HPM_P2
2021/03/14 12:03:16;;;;;;;11.50;4.00;;;18.30;63.40;;;;;;5111511;27;20789;-69
2021/03/14 12:05:42;;;;;;;16.17;5.10;;;18.00;66.60;;;;;;5110063;28;20088;-69
2021/03/14 12:08:09;;;;;;;6.68;3.75;;;17.80;66.60;;;;;;5093396;28;20024;-69
2021/03/14 12:10:34;;;;;;;9.32;4.57;;;17.70;66.10;;;;;;5092352;28;20405;-69
2021/03/14 12:13:00;;;;;;;11.07;3.28;;;17.80;67.90;;;;;;5109554;28;20055;-70
2021/03/14 12:15:26;;;;;;;;;;;17.70;67.80;;;;;;5110043;28;20030;-70
2021/03/14 12:17:51;;;;;;;8.63;3.33;;;17.80;67.60;;;;;;5110387;28;20324;-73
2021/03/14 12:20:17;;;;;;;9.77;3.78;;;17.90;66.30;;;;;;5110355;28;20035;-70
2021/03/14 12:22:43;;;;;;;9.75;3.15;;;17.90;66.50;;;;;;5109847;28;20440;-71
2021/03/14 12:25:09;;;;;;;6.30;3.35;;;17.90;66.80;;;;;;5093196;28;20059;-71
2021/03/14 12:27:34;;;;;;;9.00;4.20;;;18.00;66.70;;;;;;5111123;28;20020;-71
2021/03/14 12:30:00;;;;;;;11.50;5.05;;;18.00;66.30;;;;;;5110983;28;20352;-71
2021/03/14 12:32:26;;;;;;;6.75;2.67;;;18.00;66.20;;;;;;5111919;28;20059;-71
2021/03/14 12:34:51;;;;;;;;;;;18.10;66.60;;;;;;5111377;28;20031;-71
2021/03/14 12:37:17;;;;;;;;;;;18.20;66.50;;;;;;5111501;28;20313;-71
2021/03/14 12:39:42;;;;;;;;;;;18.20;66.30;;;;;;5112225;28;19911;-71
2021/03/14 12:42:08;;;;;;;;;;;18.20;66.30;;;;;;5111238;28;19941;-71
2021/03/14 12:44:34;;;;;;;;;;;18.20;66.30;;;;;;5094268;28;19904;-70
2021/03/14 12:47:00;;;;;;;;;;;18.20;66.50;;;;;;5111274;28;19958;-71
2021/03/14 12:49:25;;;;;;;;;;;18.20;66.60;;;;;;5094209;28;19993;-70
2021/03/14 12:51:51;;;;;;;;;;;18.30;66.40;;;;;;5110997;28;19962;-70
2021/03/14 12:54:16;;;;;;;;;;;18.40;66.30;;;;;;5062247;27;19921;-70
2021/03/14 12:56:42;;;;;;;;;;;18.40;66.10;;;;;;5067002;28;19912;-71
2021/03/14 12:59:07;;;;;;;;;;;18.50;66.10;;;;;;5050298;28;19905;-70
2021/03/14 13:01:33;;;;;;;;;;;18.50;66.10;;;;;;5051257;28;19931;-71
2021/03/14 13:03:58;;;;;;;;;;;18.40;66.10;;;;;;5066977;28;20261;-70
2021/03/14 13:06:24;;;;;;;;;;;18.40;66.20;;;;;;5050341;28;19948;-71
2021/03/14 13:12:57;;;;;;;;;;;19.90;47.00;;;;;;5112398;27;19927;-80
2021/03/14 13:15:23;;;;;;;;;;;17.30;46.80;;;;;;5119148;27;19912;-80
2021/03/14 13:17:48;;;;;;;;;;;14.20;56.80;;;;;;5085684;28;19969;-80
2021/03/14 13:20:14;;;;;;;;;;;12.20;63.40;;;;;;5069243;28;20007;-79
2021/03/14 13:22:40;;;;;;;;;;;10.70;70.30;;;;;;5090604;28;20303;-80
2021/03/14 13:25:06;;;;;;;;;;;9.80;74.80;;;;;;5074552;28;19931;-82
2021/03/14 13:27:31;;;;;;;;;;;8.80;80.10;;;;;;5062631;28;20000;-83
2021/03/14 13:32:42;;;;;;;;;;;8.40;82.70;;;;;;5067332;27;19921;-76
2021/03/14 13:35:07;;;;;;;;;;;8.10;85.00;;;;;;5038373;28;19949;-76
2021/03/14 13:37:33;;;;;;;;;;;7.90;86.00;;;;;;5034574;28;20019;-76
2021/03/14 13:39:58;;;;;;;;;;;7.70;86.90;;;;;;5034694;28;20383;-77
2021/03/14 13:42:24;;;;;;;;;;;7.60;87.70;;;;;;5034660;28;19921;-77
2021/03/14 13:44:50;;;;;;;;;;;7.50;89.50;;;;;;5034677;28;19912;-77
2021/03/14 13:47:16;;;;;;;;;;;7.30;90.60;;;;;;5018000;28;20276;-77
2021/03/14 13:49:42;;;;;;;;;;;7.20;91.10;;;;;;5014737;28;19909;-77
2021/03/14 13:52:08;;;;;;;;;;;7.20;91.60;;;;;;5047566;28;20231;-77
2021/03/14 13:54:33;;;;;;;;;;;7.00;91.20;;;;;;5047437;28;19913;-77
2021/03/14 13:56:59;;;;;;;;;;;7.00;91.90;;;;;;5047797;28;19917;-76
2021/03/14 13:59:24;;;;;;;;;;;7.00;92.50;;;;;;5047748;28;20265;-76
2021/03/14 14:01:50;;;;;;;;;;;6.90;92.40;;;;;;5047638;28;19971;-76
2021/03/14 14:04:16;;;;;;;;;;;6.80;92.60;;;;;;5047522;28;19913;-76
2021/03/14 14:06:42;;;;;;;;;;;6.80;92.60;;;;;;5047453;28;19992;-77
2021/03/14 14:09:08;;;;;;;;;;;6.70;92.80;;;;;;5030391;28;19909;-77
2021/03/14 14:11:33;;;;;;;;;;;6.70;93.00;;;;;;5047022;28;19914;-77
2021/03/14 14:13:59;;;;;;;;;;;6.70;93.20;;;;;;5031301;28;19910;-76
2021/03/14 14:16:24;;;;;;;;;;;6.70;93.50;;;;;;5047193;28;19988;-76
2021/03/14 14:18:50;;;;;;;;;;;6.70;93.70;;;;;;5046212;28;19909;-76
2021/03/14 14:21:15;;;;;;;;;;;6.70;93.70;;;;;;5047290;28;20005;-76
2021/03/14 14:23:42;;;;;;;;;;;6.70;93.70;;;;;;5047192;28;19910;-76
2021/03/14 14:26:07;;;;;;;;;;;6.60;93.70;;;;;;5046973;28;19920;-76
2021/03/14 14:28:33;;;;;;;;;;;6.60;93.80;;;;;;5031446;28;20291;-76
2021/03/14 14:30:59;;;;;;;;;;;6.60;93.80;;;;;;5031073;28;19933;-76
2021/03/14 14:33:24;;;;;;;;;;;6.60;93.90;;;;;;5030455;28;19910;-75
2021/03/14 14:35:50;;;;;;;;;;;6.60;93.90;;;;;;5030290;28;20254;-76
2021/03/14 14:38:15;;;;;;;;;;;6.60;94.00;;;;;;5046967;28;19917;-76
2021/03/14 14:40:41;;;;;;;;;;;6.60;94.00;;;;;;5046867;28;20000;-76
2021/03/14 14:43:06;;;;;;;;;;;6.60;94.10;;;;;;5023248;28;19909;-76
2021/03/14 14:45:32;;;;;;;;;;;6.60;94.20;;;;;;5017965;28;20335;-76
2021/03/14 14:47:57;;;;;;;;;;;6.60;94.20;;;;;;5018033;28;20008;-76
2021/03/14 14:50:23;;;;;;;;;;;6.60;94.40;;;;;;5017835;28;19917;-76
2021/03/14 14:52:49;;;;;;;;;;;6.60;94.40;;;;;;5033477;28;19910;-76
2021/03/14 14:55:14;;;;;;;;;;;6.60;94.50;;;;;;5016834;28;20269;-76
2021/03/14 14:57:40;;;;;;;;;;;6.60;94.50;;;;;;5016186;28;19909;-76
2021/03/14 15:00:07;;;;;;;;;;;6.60;94.50;;;;;;5033389;28;20000;-76
2021/03/14 15:02:32;;;;;;;;;;;6.70;94.60;;;;;;5032610;28;19943;-76
2021/03/14 15:04:58;;;;;;;;;;;6.60;94.50;;;;;;5033139;28;19909;-77
2021/03/14 15:07:24;;;;;;;;;;;6.60;94.50;;;;;;5033087;28;20262;-77
2021/03/14 15:09:49;;;;;;;;;;;6.60;94.50;;;;;;5033205;28;19918;-76
2021/03/14 15:12:15;;;;;;;;;;;6.60;94.60;;;;;;5016483;28;19925;-76
2021/03/14 15:14:40;;;;;;;;;;;6.60;94.80;;;;;;5033113;28;20330;-76
2021/03/14 15:17:06;;;;;;;;;;;6.60;94.90;;;;;;5032956;28;19920;-77
2021/03/14 15:19:32;;;;;;;;;;;6.60;94.90;;;;;;5032955;28;19909;-76
2021/03/14 15:22:01;;;;;;;;;;;6.70;94.90;;;;;;5032880;28;20016;-77
2021/03/14 15:24:26;;;;;;;;;;;6.70;94.90;;;;;;5031767;28;19996;-77
2021/03/14 15:26:52;;;;;;;;;;;6.70;95.00;;;;;;5031701;28;20008;-78
2021/03/14 15:29:17;;;;;;;;;;;6.70;95.00;;;;;;5032422;28;19909;-77
2021/03/14 15:31:43;;;;;;;;;;;6.70;94.90;;;;;;5032430;28;19936;-78
2021/03/14 15:34:09;;;;;;;;;;;6.60;94.90;;;;;;5032365;28;19917;-78
2021/03/14 15:36:35;;;;;;;;;;;6.60;95.00;;;;;;5032517;28;19945;-77
2021/03/14 15:39:00;;;;;;;;;;;6.60;95.00;;;;;;5016023;28;19909;-77
2021/03/14 15:41:26;;;;;;;;;;;6.60;95.20;;;;;;5032522;28;19910;-77
2021/03/14 15:43:58;;;;;;;;;;;6.70;95.30;;;;;;5032388;28;19909;-76
2021/03/14 15:46:27;;;;;;;;;;;6.70;95.30;;;;;;5016949;28;20011;-76
2021/03/14 15:48:53;;;;;;;;;;;6.70;95.30;;;;;;5031951;28;20250;-76
2021/03/14 15:51:18;;;;;;;;;;;6.70;95.30;;;;;;5015717;28;19918;-76
2021/03/14 15:53:44;;;;;;;;;;;6.70;95.40;;;;;;5014955;28;19914;-76
2021/03/14 15:56:10;;;;;;;;;;;6.70;95.40;;;;;;5031356;28;20000;-77
2021/03/14 15:58:40;;;;;;;;;;;6.70;95.40;;;;;;5015709;28;20011;-77
2021/03/14 16:01:06;;;;;;;;;;;6.80;95.50;;;;;;5016737;28;19917;-77
2021/03/14 16:03:31;;;;;;;;;;;6.80;95.50;;;;;;5032178;28;20003;-77
2021/03/14 16:05:57;;;;;;;;;;;6.80;95.50;;;;;;5032115;28;20318;-76
2021/03/14 16:08:22;;;;;;;;;;;6.80;95.50;;;;;;5032050;28;19964;-78
2021/03/14 16:10:48;;;;;;;;;;;6.70;95.50;;;;;;5031921;28;19918;-78
2021/03/14 16:13:14;;;;;;;;;;;6.80;95.60;;;;;;5031831;28;19980;-78
2021/03/14 16:15:39;;;;;;;;;;;6.80;95.70;;;;;;5016317;28;19909;-78
2021/03/14 16:18:05;;;;;;;;;;;6.80;95.70;;;;;;5031637;28;19909;-78
2021/03/14 16:20:30;;;;;;;;;;;6.80;95.80;;;;;;5028853;28;19991;-78
2021/03/14 16:22:56;;;;;;;;;;;6.80;95.80;;;;;;5014131;28;19935;-77
2021/03/14 16:25:21;;;;;;;;;;;6.80;95.80;;;;;;5014905;28;20385;-77
2021/03/14 16:27:47;;;;;;;;;;;6.80;95.90;;;;;;4998705;28;20294;-77
2021/03/14 16:30:13;;;;;;;;;;;6.90;96.10;;;;;;5014915;28;19968;-77
2021/03/14 16:32:39;;;;;;;;;;;7.00;96.40;;;;;;5015149;28;19921;-76
2021/03/14 16:35:05;;;;;;;;;;;7.10;96.70;;;;;;5015070;28;19920;-76
2021/03/14 16:37:30;;;;;;;;;;;7.30;96.90;;;;;;4998687;28;20258;-76
2021/03/14 16:39:56;;;;;;;;;;;7.40;97.00;;;;;;5014876;28;19964;-76
2021/03/14 16:42:22;;;;;;;;;;;7.50;97.00;;;;;;4996265;28;19944;-76
2021/03/14 16:44:48;;;;;;;;;;;7.50;97.00;;;;;;5014854;28;20338;-76
2021/03/14 16:47:14;;;;;;;;;;;7.60;97.00;;;;;;5014878;28;19909;-76
2021/03/14 16:49:39;;;;;;;;;;;7.60;96.90;;;;;;5014886;28;19948;-76
2021/03/14 16:52:05;;;;;;;;;;;7.70;97.00;;;;;;4998348;28;19928;-76
2021/03/14 16:57:11;;;;;;;;;;;7.80;97.00;;;;;;5102409;27;19924;-78
2021/03/14 16:59:36;;;;;;;;;;;8.20;97.10;;;;;;5058788;28;19923;-76
2021/03/14 17:02:03;;;;;;;;;;;8.10;96.50;;;;;;5070660;28;19940;-76
2021/03/14 17:04:29;;;;;;;;;;;8.10;96.40;;;;;;5070554;28;19920;-77
2021/03/14 17:06:54;;;;;;;;;;;8.10;96.40;;;;;;5068203;28;19920;-76
2021/03/14 17:11:33;;;;;;;;;;;8.10;96.30;;;;;;5106016;27;20264;-76
2021/03/14 17:19:44;;;;;;;;;;;14.90;91.30;;;;;;5076492;27;19917;-60
2021/03/14 17:24:23;;;;;;;26.00;10.50;;;;;;;;;;5006644;28;20392;-65
2021/03/14 17:26:49;;;;;;;323.38;122.43;;;;;;;;;;5011147;28;20371;-63
2021/03/14 17:29:15;;;;;;;;;;;17.10;89.60;;;;;;5009390;28;20085;-65
2021/03/14 17:31:40;;;;;;;;;;;17.20;89.00;;;;;;5012576;28;19917;-61
2021/03/14 17:34:06;;;;;;;;;;;17.10;88.90;;;;;;5011849;28;20246;-62
2021/03/14 17:36:32;;;;;;;;;;;;;;;;;;5011908;28;20330;-62
2021/03/14 17:38:58;;;;;;;;;;;;;;;;;;5011934;28;19940;-63
2021/03/14 17:41:24;;;;;;;;;;;17.10;88.20;;;;;;5011914;28;19949;-64
2021/03/14 17:43:49;;;;;;;;;;;16.90;88.20;;;;;;5011588;28;19972;-64
2021/03/14 17:46:15;;;;;;;;;;;;;;;;;;5011106;28;19905;-64
2021/03/14 17:48:42;;;;;;;;;;;;;;;;;;5011375;28;20212;-64
2021/03/14 17:51:08;;;;;;;;;;;17.00;88.00;;;;;;5011025;28;20231;-64
2021/03/14 17:53:33;;;;;;;;;;;17.10;86.50;;;;;;5011619;28;19925;-64
2021/03/14 17:55:59;;;;;;;;;;;17.10;89.80;;;;;;5036699;28;20250;-64
2021/03/14 17:58:26;;;;;;;;;;;17.00;90.20;;;;;;4995772;28;19913;-64
2021/03/14 18:00:53;;;;;;;;;;;;;;;;;;5011274;28;20031;-64
2021/03/14 18:03:19;;;;;;;;;;;;;;;;;;5011799;28;19944;-64
2021/03/14 18:05:45;;;;;;;;;;;17.10;91.00;;;;;;5010907;28;19906;-64
2021/03/14 18:08:12;;;;;;;;;;;;;;;;;;5011511;28;19913;-64
2021/03/14 18:10:38;;;;;;;;;;;17.30;91.30;;;;;;5010275;28;20016;-64
2021/03/14 18:13:04;;;;;;;;;;;;;;;;;;5010726;28;20000;-64
2021/03/14 18:15:30;;;;;;;;;;;;;;;;;;5010291;28;20336;-64
2021/03/14 18:17:56;;;;;;;;;;;17.00;91.90;;;;;;5010121;28;19953;-64
2021/03/14 18:20:22;;;;;;;;;;;;;;;;;;5011090;28;19909;-64
2021/03/14 18:22:48;;;;;;;;;;;;;;;;;;5011279;28;19929;-64
2021/03/14 18:25:14;;;;;;;;;;;;;;;;;;5010662;28;19913;-64
2021/03/14 18:27:40;;;;;;;;;;;17.00;91.90;;;;;;5010473;28;19909;-64
2021/03/14 18:30:06;;;;;;;;;;;;;;;;;;5007816;28;19909;-64
2021/03/14 18:32:32;;;;;;;;;;;;;;;;;;5010732;28;19917;-62
2021/03/14 18:34:57;;;;;;;;;;;17.10;90.30;;;;;;4984579;28;19989;-62
2021/03/14 18:37:23;;;;;;;;;;;;;;;;;;4977539;28;20266;-64
2021/03/14 18:39:49;;;;;;;;;;;;;;;;;;4978282;28;19918;-64
2021/03/14 18:42:15;;;;;;;;;;;17.00;90.90;;;;;;4977962;28;20462;-64
2021/03/14 18:44:40;;;;;;;;;;;16.90;91.00;;;;;;4977853;28;20322;-64
2021/03/14 18:47:07;;;;;;;;;;;16.90;91.00;;;;;;4977942;28;20280;-64
2021/03/14 18:49:34;;;;;;;;;;;17.00;91.50;;;;;;4977683;28;20001;-64
2021/03/14 18:51:59;;;;;;;;;;;16.90;91.70;;;;;;4977204;28;19914;-62
2021/03/14 18:54:26;;;;;;;;;;;16.90;91.20;;;;;;4977704;28;19906;-64
2021/03/14 18:56:53;;;;;;;;;;;;;;;;;;4978197;28;19906;-64
2021/03/14 18:59:20;;;;;;;;;;;17.00;91.30;;;;;;4989589;28;20351;-62
2021/03/14 19:01:47;;;;;;;;;;;17.00;91.20;;;;;;4976785;28;19920;-62
2021/03/14 19:04:15;;;;;;;;;;;16.90;89.80;;;;;;4977130;28;20335;-62
2021/03/14 19:06:40;;;;;;;;;;;16.80;90.70;;;;;;4974749;28;19952;-62
2021/03/14 19:09:07;;;;;;;;;;;16.90;92.20;;;;;;4977758;28;19910;-62
2021/03/14 19:11:34;;;;;;;;;;;;;;;;;;4992611;28;19980;-62
2021/03/14 19:14:01;;;;;;;;;;;16.80;92.30;;;;;;4976909;28;19910;-62
2021/03/14 19:16:27;;;;;;;;;;;16.80;91.40;;;;;;4976760;28;19927;-62
2021/03/14 19:18:54;;;;;;;;;;;16.90;91.40;;;;;;4977264;28;20063;-62
2021/03/14 19:21:21;;;;;;;;;;;17.10;92.50;;;;;;4977521;28;20339;-62
2021/03/14 19:23:48;;;;;;;;;;;;;;;;;;4977307;28;19918;-62
2021/03/14 19:26:15;;;;;;;;;;;;;;;;;;4977477;28;20298;-63
2021/03/14 19:28:40;;;;;;;;;;;16.90;92.30;;;;;;4977188;28;20406;-62
2021/03/14 19:31:06;;;;;;;;;;;;;;;;;;4977734;28;20009;-67
2021/03/14 19:33:33;;;;;;;;;;;17.00;92.70;;;;;;4976795;28;19910;-67
2021/03/14 19:36:00;;;;;;;;;;;;;;;;;;4977491;28;20250;-66
2021/03/14 19:38:30;;;;;;;;;;;;;;;;;;4973731;28;19910;-64
2021/03/14 19:40:57;;;;;;;;;;;;;;;;;;4974012;28;19965;-65
2021/03/14 19:43:23;;;;;;;;;;;;;;;;;;4976022;28;19924;-66
2021/03/14 19:45:48;;;;;;;;;;;17.60;92.40;;;;;;4975188;28;19910;-66
2021/03/14 19:48:14;;;;;;;;;;;;;;;;;;4974933;28;19933;-66
2021/03/14 19:50:40;;;;;;;;;;;;;;;;;;4975749;28;20026;-66
2021/03/14 19:53:06;;;;;;;;;;;17.60;92.90;;;;;;4976898;28;19921;-66
2021/03/14 19:55:32;;;;;;;;;;;;;;;;;;4976026;28;19925;-62
2021/03/14 19:57:58;;;;;;;;;;;;;;;;;;4975701;28;19921;-67
2021/03/14 20:00:24;;;;;;;;;;;;;;;;;;4976252;28;19918;-67
2021/03/14 20:02:50;;;;;;;;;;;;;;;;;;4975190;28;19944;-65
2021/03/14 20:05:15;;;;;;;;;;;17.90;91.90;;;;;;4976751;28;20315;-65
2021/03/14 20:07:41;;;;;;;;;;;;;;;;;;4988679;28;20340;-65
2021/03/14 20:10:07;;;;;;;;;;;17.90;92.90;;;;;;4974971;28;20004;-66
2021/03/14 20:12:33;;;;;;;;;;;18.00;92.70;;;;;;4976563;28;19956;-65
2021/03/14 20:14:58;;;;;;;;;;;;;;;;;;4975837;28;19984;-65
2021/03/14 20:17:25;;;;;;;;;;;;;;;;;;4976453;28;19918;-66
2021/03/14 20:19:50;;;;;;;;;;;;;;;;;;4975726;28;19909;-65
2021/03/14 20:22:16;;;;;;;;;;;18.00;90.30;;;;;;4975396;28;19916;-65
2021/03/14 20:24:42;;;;;;;;;;;;;;;;;;4975549;28;19946;-65
2021/03/14 20:27:08;;;;;;;;;;;18.10;92.60;;;;;;4975729;28;19953;-65
2021/03/14 20:29:34;;;;;;;;;;;;;;;;;;4975541;28;19917;-65
2021/03/14 20:32:00;;;;;;;;;;;18.10;92.60;;;;;;4975511;28;19917;-66
2021/03/14 20:34:26;;;;;;;;;;;18.10;91.80;;;;;;4975272;28;19964;-66
2021/03/14 20:36:54;;;;;;;;;;;18.20;93.20;;;;;;4975857;28;19937;-65
2021/03/14 20:39:22;;;;;;;;;;;;;;;;;;4986857;28;19906;-65
2021/03/14 20:41:48;;;;;;;;;;;18.10;92.40;;;;;;4979494;28;19957;-66
2021/03/14 20:44:15;;;;;;;;;;;;;;;;;;4975148;28;19925;-65
2021/03/14 20:46:42;;;;;;;;;;;;;;;;;;4976047;28;19906;-66
2021/03/14 20:49:09;;;;;;;;;;;;;;;;;;4975725;28;19928;-66
2021/03/14 20:51:36;;;;;;;;;;;18.20;92.20;;;;;;5007065;28;19906;-66
2021/03/14 20:54:03;;;;;;;;;;;;;;;;;;4974686;28;19945;-66
2021/03/14 20:56:29;;;;;;;;;;;18.20;92.30;;;;;;4975290;28;19945;-67
2021/03/14 20:58:56;;;;;;;;;;;;;;;;;;4997039;28;19965;-67
2021/03/14 21:01:24;;;;;;;;;;;;;;;;;;4975271;28;19917;-66
2021/03/14 21:03:51;;;;;;;;;;;18.30;93.40;;;;;;4975673;28;20315;-65
2021/03/14 21:06:18;;;;;;;;;;;18.40;93.30;;;;;;4974878;28;19911;-65
2021/03/14 21:08:44;;;;;;;;;;;;;;;;;;5006880;28;20343;-67
2021/03/14 21:11:11;;;;;;;;;;;;;;;;;;4974704;28;20008;-67
2021/03/14 21:13:37;;;;;;;;;;;18.50;92.50;;;;;;4974333;28;19910;-66
2021/03/14 21:16:03;;;;;;;;;;;18.50;93.30;;;;;;4973749;28;20369;-66
2021/03/14 21:18:29;;;;;;;;;;;;;;;;;;4973744;28;19993;-65
2021/03/14 21:20:54;;;;;;;;;;;18.50;93.20;;;;;;4973949;28;19924;-66
2021/03/14 21:23:21;;;;;;;;;;;;;;;;;;4973664;28;19972;-66
2021/03/14 21:25:47;;;;;;;;;;;18.40;93.20;;;;;;4974285;28;19914;-65
2021/03/14 21:28:13;;;;;;;;;;;;;;;;;;4973616;28;19916;-66
2021/03/14 21:30:39;;;;;;;;;;;18.50;93.30;;;;;;4974200;28;20397;-65
2021/03/14 21:33:05;;;;;;;;;;;18.30;93.10;;;;;;4973573;28;20004;-65
2021/03/14 21:35:31;;;;;;;;;;;;;;;;;;4974634;28;20299;-66
2021/03/14 21:37:56;;;;;;;;;;;18.40;92.70;;;;;;4974088;28;19906;-66
2021/03/14 21:40:22;;;;;;;;;;;;;;;;;;4973764;28;19914;-66
2021/03/14 21:42:48;;;;;;;;;;;;;;;;;;4975224;28;19973;-65
2021/03/14 21:45:14;;;;;;;;;;;;;;;;;;4975157;28;19921;-66
2021/03/14 21:47:41;;;;;;;;;;;18.50;93.90;;;;;;4974674;28;19972;-69
2021/03/14 21:50:07;;;;;;;;;;;;;;;;;;4989500;28;19917;-64
2021/03/14 21:52:33;;;;;;;;;;;;;;;;;;4989496;28;20306;-65
2021/03/14 21:54:59;;;;;;;;;;;;;;;;;;4975192;28;19917;-65
2021/03/14 21:57:25;;;;;;;;;;;18.70;93.50;;;;;;4973456;28;19906;-66
2021/03/14 21:59:51;;;;;;;;;;;;;;;;;;4974529;28;19941;-65
2021/03/14 22:02:17;;;;;;;;;;;;;;;;;;4973103;28;20238;-65
2021/03/14 22:04:43;;;;;;;;;;;;;;;;;;4990005;28;19921;-66
2021/03/14 22:07:09;;;;;;;;;;;;;;;;;;4974063;28;19906;-66
2021/03/14 22:09:35;;;;;;;;;;;18.60;93.90;;;;;;4975666;28;19917;-66
2021/03/14 22:12:04;;;;;;;;;;;;;;;;;;5009840;28;19968;-66
2021/03/14 22:14:30;;;;;;;;;;;;;;;;;;4977638;28;19906;-65
2021/03/14 22:16:56;;;;;;;;;;;;;;;;;;4978493;28;19906;-66
2021/03/14 22:19:22;;;;;;;;;;;;;;;;;;4978372;28;19906;-66
2021/03/14 22:21:48;;;;;;;;;;;;;;;;;;4978624;28;19933;-65
2021/03/14 22:24:14;;;;;;;;;;;;;;;;;;4976377;28;19965;-65
2021/03/14 22:26:40;;;;;;;;;;;18.60;94.30;;;;;;4991324;28;19906;-64
2021/03/14 22:29:06;;;;;;;;;;;;;;;;;;4977227;28;19910;-65
2021/03/14 22:31:32;;;;;;;;;;;;;;;;;;4992995;28;19906;-66
2021/03/14 22:33:58;;;;;;;;;;;;;;;;;;4978757;28;19956;-65
2021/03/14 22:36:24;;;;;;;;;;;;;;;;;;4978160;28;19918;-66
2021/03/14 22:38:50;;;;;;;;;;;;;;;;;;4977909;28;19906;-65
2021/03/14 22:41:16;;;;;;;;;;;;;;;;;;4978242;28;19914;-65
2021/03/14 22:43:41;;;;;;;;;;;18.60;94.50;;;;;;4978080;28;19914;-66
2021/03/14 22:46:07;;;;;;;;;;;;;;;;;;4977151;28;20022;-66
2021/03/14 22:48:33;;;;;;;;;;;;;;;;;;4977102;28;19906;-65
2021/03/14 22:50:59;;;;;;;;;;;18.60;93.70;;;;;;4977970;28;20254;-66
2021/03/14 22:53:25;;;;;;;;;;;;;;;;;;4977013;28;19905;-66
2021/03/14 22:55:51;;;;;;;;;;;;;;;;;;4977010;28;19906;-66
2021/03/14 22:58:17;;;;;;;;;;;;;;;;;;4977985;28;19906;-66
2021/03/14 23:00:43;;;;;;;;;;;;;;;;;;4977958;28;19917;-65
2021/03/14 23:03:09;;;;;;;;;;;;;;;;;;4977790;28;19910;-65
2021/03/14 23:05:34;;;;;;;;;;;18.60;94.50;;;;;;4977768;28;19914;-65
2021/03/14 23:08:00;;;;;;;;;;;;;;;;;;4976680;28;19906;-65
2021/03/14 23:10:26;;;;;;;;;;;;;;;;;;4977737;28;20358;-65
2021/03/14 23:12:52;;;;;;;;;;;;;;;;;;4977729;28;19906;-65
2021/03/14 23:15:22;;;;;;;;;;;18.60;93.90;;;;;;4977578;28;19906;-65
2021/03/14 23:17:53;;;;;;;;;;;;;;;;;;4977629;28;20275;-65
2021/03/14 23:20:19;;;;;;;;;;;;;;;;;;4977383;28;19909;-66
2021/03/14 23:22:45;;;;;;;;;;;;;;;;;;4977220;28;19984;-66
2021/03/14 23:25:11;;;;;;;;;;;;;;;;;;4977396;28;20290;-65
2021/03/14 23:27:36;;;;;;;;;;;18.50;92.90;;;;;;4977472;28;20040;-65
2021/03/14 23:30:02;;;;;;;;;;;;;;;;;;4977246;28;19938;-65
2021/03/14 23:32:28;;;;;;;;;;;;;;;;;;4977322;28;20016;-64
2021/03/14 23:34:54;;;;;;;;;;;;;;;;;;4977495;28;20307;-64
2021/03/14 23:37:20;;;;;;;;;;;;;;;;;;4977071;28;20364;-65
2021/03/14 23:39:45;;;;;;;;;;;18.50;94.60;;;;;;4976993;28;19913;-65
2021/03/14 23:42:11;;;;;;;;;;;;;;;;;;4976815;28;19906;-66
2021/03/14 23:44:37;;;;;;;;;;;;;;;;;;4992224;28;19914;-66
2021/03/14 23:47:03;;;;;;;;;;;;;;;;;;4977047;28;19961;-66
2021/03/14 23:49:29;;;;;;;;;;;;;;;;;;4977068;28;19910;-66
2021/03/14 23:51:55;;;;;;;;;;;18.40;93.00;;;;;;4992197;28;19916;-64
2021/03/14 23:54:21;;;;;;;;;;;;;;;;;;4976750;28;20394;-65
2021/03/14 23:56:47;;;;;;;;;;;;;;;;;;4976875;28;20263;-65
2021/03/14 23:59:12;;;;;;;;;;;;;;;;;;4991907;28;19913;-65
